Time;durP1;ratioP1;P1;durP2;ratioP2;P2;SDS_P1;SDS_P2;PMS_P1;PMS_P2;Temp;Humidity;BMP_temperature;BMP_pressure;BME280_temperature;BME280_humidity;BME280_pressure;Samples;Min_cycle;Max_cycle;Signal;HPM_P1;HPM_P2
2023/04/05 00:01:48;;;;;;;7.40;5.35;;;11.90;47.40;;;;;;5019575;28;20025;-77
2023/04/05 00:04:19;;;;;;;8.68;6.43;;;11.80;47.30;;;;;;5020978;28;20049;-78
2023/04/05 00:06:51;;;;;;;9.32;5.45;;;11.80;47.40;;;;;;5019684;28;20033;-77
2023/04/05 00:09:21;;;;;;;6.15;5.35;;;11.80;47.40;;;;;;5000501;28;20124;-77
2023/04/05 00:11:48;;;;;;;8.60;5.80;;;11.80;47.50;;;;;;5017603;28;20389;-78
2023/04/05 00:14:14;;;;;;;8.20;5.68;;;11.70;47.40;;;;;;5022007;28;20061;-77
2023/04/05 00:16:40;;;;;;;6.15;5.55;;;11.70;47.40;;;;;;5017901;28;20033;-77
2023/04/05 00:19:06;;;;;;;7.25;5.13;;;11.60;47.30;;;;;;5003661;28;20045;-78
2023/04/05 00:21:33;;;;;;;8.75;6.38;;;11.60;47.40;;;;;;5001807;28;20398;-76
2023/04/05 00:23:59;;;;;;;5.35;4.82;;;11.60;47.50;;;;;;4995423;28;20331;-76
2023/04/05 00:26:25;;;;;;;7.35;5.68;;;11.50;47.40;;;;;;5019672;28;20026;-76
2023/04/05 00:28:55;;;;;;;6.85;5.43;;;11.50;47.50;;;;;;4996144;28;20033;-76
2023/04/05 00:31:22;;;;;;;6.82;5.05;;;11.50;47.50;;;;;;5018775;28;20919;-76
2023/04/05 00:33:48;;;;;;;8.45;5.22;;;11.50;47.60;;;;;;4994636;28;20329;-76
2023/04/05 00:36:16;;;;;;;7.45;5.57;;;11.50;47.60;;;;;;4996978;28;20041;-76
2023/04/05 00:38:44;;;;;;;7.05;5.00;;;11.40;47.50;;;;;;4998801;28;20033;-77
2023/04/05 00:41:11;;;;;;;9.73;5.40;;;11.40;47.60;;;;;;4996162;28;20025;-77
2023/04/05 00:43:37;;;;;;;7.82;5.65;;;11.40;47.60;;;;;;5019084;28;20029;-77
2023/04/05 00:46:04;;;;;;;7.13;5.22;;;11.40;47.60;;;;;;5018366;28;20037;-77
2023/04/05 00:48:30;;;;;;;8.35;5.82;;;11.30;47.50;;;;;;5017842;28;20034;-76
2023/04/05 00:50:57;;;;;;;10.38;6.30;;;11.30;47.50;;;;;;4979017;28;20049;-76
2023/04/05 00:53:23;;;;;;;7.72;5.97;;;11.30;47.60;;;;;;5016674;28;20041;-76
2023/04/05 00:55:50;;;;;;;8.77;5.25;;;11.30;47.70;;;;;;5017903;28;20029;-76
2023/04/05 00:58:18;;;;;;;8.68;6.00;;;11.30;47.60;;;;;;4997741;28;20034;-76
2023/04/05 01:01:12;;;;;;;7.50;5.20;;;11.20;47.50;;;;;;5018042;28;20027;-78
2023/04/05 01:03:45;;;;;;;7.10;5.35;;;11.20;47.90;;;;;;4999715;28;20065;-77
2023/04/05 01:06:39;;;;;;;7.93;5.43;;;11.20;47.60;;;;;;5016581;28;20022;-76
2023/04/05 01:09:20;;;;;;;7.05;5.90;;;11.10;47.60;;;;;;5017302;28;20029;-77
2023/04/05 01:11:47;;;;;;;7.93;6.05;;;11.10;47.60;;;;;;4999982;28;20045;-77
2023/04/05 01:14:13;;;;;;;5.53;4.95;;;11.10;47.60;;;;;;5013681;28;20072;-76
2023/04/05 01:16:39;;;;;;;8.50;5.80;;;11.10;47.70;;;;;;4998587;28;20485;-75
2023/04/05 01:19:08;;;;;;;8.73;6.00;;;11.00;47.60;;;;;;4992919;28;20095;-76
2023/04/05 01:21:37;;;;;;;6.78;5.60;;;11.00;47.70;;;;;;4983164;28;20029;-77
2023/04/05 01:24:29;;;;;;;8.10;6.07;;;11.00;47.80;;;;;;5016840;28;20127;-76
2023/04/05 01:27:15;;;;;;;7.57;6.22;;;11.00;48.00;;;;;;5016234;28;20029;-76
2023/04/05 01:30:07;;;;;;;9.45;6.10;;;10.90;47.80;;;;;;5019845;28;20029;-77
2023/04/05 01:32:42;;;;;;;9.27;6.00;;;10.90;47.80;;;;;;4996471;28;20429;-76
2023/04/05 01:35:14;;;;;;;7.32;5.53;;;10.90;47.90;;;;;;5000561;28;20026;-76
2023/04/05 01:37:42;;;;;;;8.18;5.93;;;10.90;48.00;;;;;;4999314;28;20163;-76
2023/04/05 01:40:09;;;;;;;7.90;6.30;;;10.80;47.80;;;;;;4979703;28;20029;-75
2023/04/05 01:42:36;;;;;;;7.63;6.13;;;10.80;47.90;;;;;;5013934;28;20076;-75
2023/04/05 01:45:02;;;;;;;13.23;7.47;;;10.80;47.90;;;;;;5017955;28;20323;-76
2023/04/05 01:47:28;;;;;;;9.52;7.40;;;10.80;48.00;;;;;;5009837;28;20120;-76
2023/04/05 01:49:54;;;;;;;9.13;6.47;;;10.80;48.10;;;;;;5016509;28;20076;-77
2023/04/05 01:52:21;;;;;;;8.25;6.10;;;10.70;48.00;;;;;;5013479;28;20564;-77
2023/04/05 01:54:47;;;;;;;8.88;7.68;;;10.70;48.00;;;;;;5011561;28;20121;-77
2023/04/05 01:57:12;;;;;;;10.23;6.68;;;10.70;48.10;;;;;;5022454;28;20045;-77
2023/04/05 01:59:38;;;;;;;11.20;6.95;;;10.70;48.20;;;;;;5029670;28;20370;-75
2023/04/05 02:02:05;;;;;;;7.65;6.90;;;10.60;48.10;;;;;;5019027;28;20030;-76
2023/04/05 02:04:30;;;;;;;8.13;6.47;;;10.60;48.20;;;;;;5036015;28;20092;-76
2023/04/05 02:06:56;;;;;;;9.10;6.68;;;10.60;48.30;;;;;;5014023;28;20034;-77
2023/04/05 02:09:22;;;;;;;8.27;6.90;;;10.60;48.40;;;;;;5023497;28;20035;-76
2023/04/05 02:11:48;;;;;;;9.77;6.80;;;10.50;48.30;;;;;;5020689;28;20105;-76
2023/04/05 02:14:14;;;;;;;10.27;6.82;;;10.50;48.30;;;;;;5021834;28;20057;-76
2023/04/05 02:16:41;;;;;;;8.80;6.97;;;10.50;48.40;;;;;;5021544;28;20029;-77
2023/04/05 02:19:07;;;;;;;9.20;6.72;;;10.50;48.50;;;;;;5021772;28;20116;-76
2023/04/05 02:21:35;;;;;;;8.63;6.72;;;10.50;48.60;;;;;;5015731;28;20025;-76
2023/04/05 02:24:02;;;;;;;9.20;6.28;;;10.50;48.70;;;;;;5017676;28;20076;-77
2023/04/05 02:26:28;;;;;;;9.55;6.30;;;10.50;48.70;;;;;;5021622;28;20065;-76
2023/04/05 02:28:54;;;;;;;7.75;5.70;;;10.50;48.70;;;;;;5023171;28;20614;-76
2023/04/05 02:31:20;;;;;;;7.82;6.85;;;10.50;48.80;;;;;;5023869;28;20045;-76
2023/04/05 02:33:47;;;;;;;8.65;6.93;;;10.50;48.80;;;;;;5017214;28;20056;-77
2023/04/05 02:36:13;;;;;;;8.82;7.38;;;10.50;48.80;;;;;;5024086;28;20080;-76
2023/04/05 02:38:39;;;;;;;8.02;7.00;;;10.50;48.90;;;;;;5025886;28;20742;-77
2023/04/05 02:41:12;;;;;;;11.38;7.90;;;10.50;49.00;;;;;;5026188;28;20095;-77
2023/04/05 02:43:38;;;;;;;9.35;7.10;;;10.40;48.80;;;;;;5022259;28;20029;-77
2023/04/05 02:46:04;;;;;;;8.10;6.85;;;10.40;48.80;;;;;;5000029;28;20045;-77
2023/04/05 02:48:32;;;;;;;10.55;7.43;;;10.40;48.90;;;;;;5025778;28;20524;-76
2023/04/05 02:50:58;;;;;;;8.52;7.47;;;10.40;49.00;;;;;;5002518;28;20034;-76
2023/04/05 02:53:24;;;;;;;11.45;7.78;;;10.40;49.10;;;;;;4998345;28;20055;-76
2023/04/05 02:55:58;;;;;;;8.05;6.28;;;10.40;49.20;;;;;;5019910;28;20064;-75
2023/04/05 02:58:24;;;;;;;11.68;7.57;;;10.40;49.20;;;;;;4985528;28;20048;-76
2023/04/05 03:00:53;;;;;;;10.55;7.72;;;10.30;49.10;;;;;;5005528;28;20398;-77
2023/04/05 03:03:25;;;;;;;8.60;7.60;;;10.30;49.20;;;;;;5023334;28;20791;-78
2023/04/05 03:06:06;;;;;;;9.80;7.72;;;10.30;49.30;;;;;;5006828;28;20034;-78
2023/04/05 03:08:37;;;;;;;;;;;10.30;49.40;;;;;;5005570;28;20030;-77
2023/04/05 03:11:05;;;;;;;8.07;7.22;;;10.20;49.20;;;;;;5006882;28;20303;-78
2023/04/05 03:13:33;;;;;;;8.15;6.72;;;10.20;49.10;;;;;;5023491;28;20518;-77
2023/04/05 03:16:01;;;;;;;11.63;7.38;;;10.20;49.20;;;;;;5020301;28;20485;-78
2023/04/05 03:18:29;;;;;;;11.73;7.55;;;10.20;49.30;;;;;;5007183;28;20029;-78
2023/04/05 03:21:03;;;;;;;8.93;6.45;;;10.20;49.40;;;;;;5007636;28;20384;-79
2023/04/05 03:23:32;;;;;;;10.07;8.05;;;10.20;49.40;;;;;;4989241;28;20041;-78
2023/04/05 03:26:03;;;;;;;8.63;7.05;;;10.10;49.30;;;;;;5003398;28;20125;-79
2023/04/05 03:28:33;;;;;;;10.95;7.53;;;10.10;49.40;;;;;;5020065;28;20029;-77
2023/04/05 03:31:02;;;;;;;8.98;7.55;;;10.10;49.40;;;;;;5005677;28;20029;-78
2023/04/05 03:33:28;;;;;;;13.35;8.13;;;10.10;49.50;;;;;;5004875;28;22277;-77
2023/04/05 03:35:54;;;;;;;9.35;7.40;;;10.10;49.50;;;;;;5017202;28;20029;-77
2023/04/05 03:38:21;;;;;;;13.95;8.18;;;10.10;49.60;;;;;;5016402;28;20030;-77
2023/04/05 03:41:07;;;;;;;8.93;7.07;;;10.10;49.70;;;;;;5020702;28;20068;-77
2023/04/05 03:43:34;;;;;;;9.02;7.38;;;10.00;49.50;;;;;;5014933;28;20030;-77
2023/04/05 03:46:01;;;;;;;11.68;7.68;;;10.00;49.60;;;;;;4998103;28;20049;-77
2023/04/05 03:48:29;;;;;;;8.23;7.30;;;10.00;49.80;;;;;;5012053;28;20362;-78
2023/04/05 03:50:55;;;;;;;9.27;7.90;;;10.00;49.80;;;;;;5012154;28;20037;-77
2023/04/05 03:53:22;;;;;;;10.82;8.23;;;10.00;49.90;;;;;;5018130;28;20025;-77
2023/04/05 03:55:54;;;;;;;10.00;7.63;;;10.00;50.00;;;;;;4997473;28;20144;-76
2023/04/05 03:58:29;;;;;;;9.25;7.35;;;10.00;50.00;;;;;;5005074;28;20073;-76
2023/04/05 04:00:57;;;;;;;8.55;6.95;;;9.90;50.50;;;;;;4984562;28;20155;-76
2023/04/05 04:03:24;;;;;;;10.85;8.15;;;9.90;50.00;;;;;;5020427;28;20061;-75
2023/04/05 04:05:51;;;;;;;8.93;7.20;;;9.90;50.00;;;;;;5005940;28;20141;-76
2023/04/05 04:08:19;;;;;;;11.30;7.18;;;9.90;50.10;;;;;;5017118;28;20022;-76
2023/04/05 04:10:45;;;;;;;14.30;7.88;;;9.90;50.20;;;;;;5023030;28;20068;-76
2023/04/05 04:13:27;;;;;;;8.55;7.20;;;9.90;50.20;;;;;;5016657;28;20037;-76
2023/04/05 04:16:02;;;;;;;10.05;7.35;;;9.90;50.20;;;;;;5005781;28;20045;-77
2023/04/05 04:18:54;;;;;;;11.38;7.40;;;9.90;50.30;;;;;;5014355;28;20045;-76
2023/04/05 04:21:34;;;;;;;11.25;7.88;;;9.90;50.30;;;;;;5008197;28;20160;-76
2023/04/05 04:24:17;;;;;;;9.90;7.72;;;9.90;50.30;;;;;;5005253;28;20065;-76
2023/04/05 04:27:05;;;;;;;9.82;8.23;;;9.90;50.40;;;;;;5012856;28;20034;-76
2023/04/05 04:29:49;;;;;;;8.75;7.00;;;9.90;50.40;;;;;;5020008;28;20042;-77
2023/04/05 04:32:25;;;;;;;12.52;7.45;;;9.90;50.50;;;;;;5019372;28;20033;-76
2023/04/05 04:35:27;;;;;;;11.40;7.45;;;9.80;50.30;;;;;;5008469;28;20038;-77
2023/04/05 04:38:24;;;;;;;8.23;6.95;;;9.80;50.40;;;;;;4990300;28;20049;-77
2023/04/05 04:41:10;;;;;;;10.43;8.20;;;9.80;50.40;;;;;;5016802;28;20048;-77
2023/04/05 04:43:57;;;;;;;8.40;6.85;;;9.90;50.70;;;;;;5017071;28;20537;-77
2023/04/05 04:46:41;;;;;;;7.97;7.07;;;9.80;50.50;;;;;;5004945;28;20060;-76
2023/04/05 04:49:28;;;;;;;8.00;6.55;;;9.80;50.50;;;;;;4995285;28;20038;-77
2023/04/05 04:51:57;;;;;;;11.05;7.95;;;9.90;50.70;;;;;;5013190;28;20025;-77
2023/04/05 04:54:23;;;;;;;9.55;6.80;;;9.90;51.40;;;;;;5006200;28;20087;-76
2023/04/05 04:56:49;;;;;;;9.00;7.90;;;9.80;50.70;;;;;;5014296;28;20037;-77
2023/04/05 04:59:15;;;;;;;8.40;6.55;;;9.80;50.80;;;;;;5012132;28;20025;-77
2023/04/05 05:01:44;;;;;;;7.10;6.35;;;9.80;50.90;;;;;;5013015;28;20037;-76
2023/04/05 05:04:10;;;;;;;7.38;6.45;;;9.80;50.90;;;;;;5012407;28;20518;-76
2023/04/05 05:06:38;;;;;;;10.57;6.72;;;9.80;51.00;;;;;;5006373;28;20196;-77
2023/04/05 05:09:04;;;;;;;8.27;6.50;;;9.80;51.00;;;;;;5040692;28;20129;-74
2023/04/05 05:11:34;;;;;;;9.10;7.10;;;9.80;51.10;;;;;;5031915;28;20037;-76
2023/04/05 05:14:00;;;;;;;8.95;6.38;;;9.90;51.30;;;;;;5016167;28;20073;-76
2023/04/05 05:16:27;;;;;;;8.10;6.10;;;9.90;51.30;;;;;;5037412;28;20017;-75
2023/04/05 05:18:54;;;;;;;8.45;7.00;;;9.90;51.40;;;;;;5031352;28;20037;-76
2023/04/05 05:21:22;;;;;;;8.90;6.60;;;9.90;51.40;;;;;;5036342;28;20095;-76
2023/04/05 05:23:54;;;;;;;8.63;5.75;;;9.90;51.40;;;;;;5024686;28;20620;-76
2023/04/05 05:26:20;;;;;;;7.57;5.43;;;9.90;51.70;;;;;;5025982;28;20042;-77
2023/04/05 05:28:48;;;;;;;9.80;6.60;;;10.00;52.10;;;;;;5018414;28;20130;-76
2023/04/05 05:31:16;;;;;;;10.32;7.30;;;10.00;52.10;;;;;;5015169;28;20417;-78
2023/04/05 05:33:44;;;;;;;9.52;6.07;;;10.00;52.10;;;;;;5005746;28;20053;-78
2023/04/05 05:36:10;;;;;;;11.18;7.28;;;10.00;52.70;;;;;;5014400;28;20040;-77
2023/04/05 05:38:36;;;;;;;10.15;6.63;;;10.00;52.20;;;;;;5012085;28;20037;-75
2023/04/05 05:41:02;;;;;;;8.93;7.55;;;10.00;52.20;;;;;;5007428;28;20040;-74
2023/04/05 05:43:28;;;;;;;9.23;6.35;;;10.00;52.30;;;;;;5016311;28;20116;-74
2023/04/05 05:45:54;;;;;;;10.68;7.30;;;10.00;52.30;;;;;;5015226;28;20587;-74
2023/04/05 05:48:21;;;;;;;7.68;5.95;;;10.00;52.30;;;;;;5007823;28;20054;-77
2023/04/05 05:50:48;;;;;;;8.93;6.80;;;10.00;52.30;;;;;;5013068;28;20040;-77
2023/04/05 05:53:14;;;;;;;7.55;6.40;;;10.00;52.40;;;;;;4997632;28;20489;-76
2023/04/05 05:55:40;;;;;;;11.15;6.53;;;10.00;52.40;;;;;;5011846;28;20038;-78
2023/04/05 05:58:06;;;;;;;9.80;6.80;;;10.00;52.40;;;;;;5009454;28;20168;-76
2023/04/05 06:00:33;;;;;;;8.93;7.10;;;10.00;52.40;;;;;;4975262;28;20472;-77
2023/04/05 06:03:00;;;;;;;9.93;7.38;;;10.00;52.50;;;;;;4981090;28;20022;-77
2023/04/05 06:05:26;;;;;;;9.52;6.45;;;10.00;52.50;;;;;;5010986;28;20889;-77
2023/04/05 06:07:52;;;;;;;9.73;6.13;;;10.00;52.50;;;;;;5015224;28;20026;-78
2023/04/05 06:10:18;;;;;;;8.63;7.07;;;10.00;52.50;;;;;;5013584;28;20041;-78
2023/04/05 06:12:44;;;;;;;9.13;6.40;;;10.00;52.50;;;;;;5015411;28;20033;-76
2023/04/05 06:15:10;;;;;;;7.57;6.15;;;10.10;52.70;;;;;;5015387;28;20044;-78
2023/04/05 06:17:41;;;;;;;7.43;6.32;;;10.10;52.70;;;;;;5011138;28;20342;-77
2023/04/05 06:20:10;;;;;;;8.30;6.88;;;10.10;52.70;;;;;;5012366;28;20038;-77
2023/04/05 06:22:39;;;;;;;8.23;6.60;;;10.10;52.70;;;;;;5010903;28;20065;-77
2023/04/05 06:25:05;;;;;;;10.52;7.22;;;10.20;52.90;;;;;;5014515;28;20060;-77
2023/04/05 06:27:31;;;;;;;8.25;7.13;;;10.10;52.70;;;;;;5000936;28;20100;-78
2023/04/05 06:30:00;;;;;;;8.57;7.25;;;10.20;52.90;;;;;;5015509;28;20441;-77
2023/04/05 06:32:26;;;;;;;9.20;6.43;;;10.20;52.90;;;;;;5015536;28;20037;-78
2023/04/05 06:34:52;;;;;;;8.52;6.07;;;10.20;52.90;;;;;;5020415;28;20088;-79
2023/04/05 06:37:18;;;;;;;9.88;6.35;;;10.20;52.90;;;;;;5015336;28;20038;-78
2023/04/05 06:39:44;;;;;;;8.50;6.45;;;10.30;53.10;;;;;;5014544;28;20051;-77
2023/04/05 06:42:10;;;;;;;9.75;6.65;;;10.30;53.00;;;;;;5019012;28;20029;-76
2023/04/05 06:44:44;;;;;;;8.25;7.38;;;10.30;53.00;;;;;;5000325;28;20378;-79
2023/04/05 06:47:10;;;;;;;7.85;7.05;;;10.40;53.20;;;;;;5013120;28;20170;-77
2023/04/05 06:49:35;;;;;;;7.10;6.10;;;10.40;53.10;;;;;;5012170;28;20144;-77
2023/04/05 06:52:04;;;;;;;8.18;6.15;;;10.50;53.30;;;;;;5018383;28;20367;-78
2023/04/05 06:54:32;;;;;;;8.90;7.00;;;10.50;53.20;;;;;;5011695;28;20445;-78
2023/04/05 06:56:58;;;;;;;8.05;7.00;;;10.60;53.40;;;;;;5018684;28;20041;-78
2023/04/05 06:59:24;;;;;;;14.40;7.75;;;10.60;53.30;;;;;;5014352;28;20358;-77
2023/04/05 07:01:49;;;;;;;10.30;8.40;;;10.60;53.30;;;;;;5018709;28;20491;-78
2023/04/05 07:04:15;;;;;;;11.23;7.18;;;10.70;53.40;;;;;;5013784;28;20771;-77
2023/04/05 07:06:41;;;;;;;8.30;7.13;;;10.70;54.00;;;;;;5009691;28;20388;-77
2023/04/05 07:09:07;;;;;;;10.43;7.28;;;10.80;53.50;;;;;;5013346;28;20353;-77
2023/04/05 07:11:33;;;;;;;10.77;7.68;;;10.90;53.60;;;;;;4995495;28;20564;-78
2023/04/05 07:13:59;;;;;;;9.57;7.60;;;10.90;53.50;;;;;;4998269;28;20448;-75
2023/04/05 07:16:25;;;;;;;11.00;7.60;;;11.00;53.60;;;;;;5016852;28;20037;-77
2023/04/05 07:18:51;;;;;;;12.65;8.15;;;11.00;53.50;;;;;;5013517;28;20032;-76
2023/04/05 07:21:17;;;;;;;15.05;8.88;;;11.10;53.60;;;;;;5012314;28;20116;-76
2023/04/05 07:23:43;;;;;;;9.55;7.55;;;11.20;53.80;;;;;;5018869;28;20107;-77
2023/04/05 07:26:11;;;;;;;9.98;8.15;;;11.20;53.70;;;;;;5015615;28;20030;-77
2023/04/05 07:28:37;;;;;;;11.10;9.07;;;11.30;53.80;;;;;;5015322;28;20097;-75
2023/04/05 07:31:04;;;;;;;12.25;9.27;;;11.30;53.80;;;;;;5016809;28;20037;-75
2023/04/05 07:33:30;;;;;;;12.65;9.15;;;11.30;53.70;;;;;;4999310;28;20041;-75
2023/04/05 07:35:56;;;;;;;11.10;9.13;;;11.40;53.80;;;;;;5013386;28;20429;-76
2023/04/05 07:38:26;;;;;;;11.90;9.32;;;11.40;53.70;;;;;;5015588;28;20033;-76
2023/04/05 07:40:52;;;;;;;10.43;9.23;;;11.50;53.80;;;;;;5011520;28;20961;-76
2023/04/05 07:43:18;;;;;;;12.45;9.55;;;11.60;53.90;;;;;;5012790;28;20181;-76
2023/04/05 07:45:44;;;;;;;10.32;9.05;;;11.70;54.20;;;;;;5013583;28;20189;-76
2023/04/05 07:48:11;;;;;;;13.40;10.10;;;11.70;54.10;;;;;;5012044;28;20361;-77
2023/04/05 07:50:39;;;;;;;13.45;10.43;;;11.80;54.10;;;;;;4980025;28;20029;-77
2023/04/05 07:53:06;;;;;;;12.82;10.25;;;11.80;54.10;;;;;;5001310;28;20341;-76
2023/04/05 07:55:33;;;;;;;13.88;10.50;;;11.90;54.20;;;;;;4995266;28;20029;-75
2023/04/05 07:57:58;;;;;;;14.35;10.73;;;12.00;54.30;;;;;;5012685;28;20040;-76
2023/04/05 08:00:24;;;;;;;14.25;10.30;;;12.10;54.40;;;;;;5010915;28;20037;-77
2023/04/05 08:02:50;;;;;;;16.38;10.48;;;12.10;54.30;;;;;;5004228;28;20045;-76
2023/04/05 08:05:16;;;;;;;10.20;8.77;;;12.10;54.30;;;;;;5014095;28;20394;-75
2023/04/05 08:07:42;;;;;;;11.70;8.63;;;12.10;54.30;;;;;;4996085;28;20128;-75
2023/04/05 08:10:09;;;;;;;12.57;9.38;;;12.20;54.80;;;;;;5005605;28;20033;-76
2023/04/05 08:12:35;;;;;;;11.73;9.27;;;12.30;55.20;;;;;;5015377;28;20025;-75
2023/04/05 08:15:00;;;;;;;14.18;10.75;;;12.50;55.70;;;;;;5012867;28;20511;-75
2023/04/05 08:17:27;;;;;;;12.30;10.13;;;12.50;55.70;;;;;;5013654;28;20025;-75
2023/04/05 08:19:54;;;;;;;16.02;10.23;;;12.60;55.90;;;;;;5012085;28;20464;-75
2023/04/05 08:22:19;;;;;;;12.63;10.10;;;12.60;55.90;;;;;;5010784;28;20029;-76
2023/04/05 08:24:45;;;;;;;11.25;9.82;;;12.70;56.20;;;;;;5017306;28;20515;-73
2023/04/05 08:27:11;;;;;;;14.07;9.32;;;12.80;56.40;;;;;;5001029;28;20034;-74
2023/04/05 08:29:37;;;;;;;13.07;11.52;;;12.80;56.40;;;;;;5006981;28;20226;-74
2023/04/05 08:32:03;;;;;;;11.23;9.77;;;12.90;56.70;;;;;;5009147;28;20038;-74
2023/04/05 08:34:29;;;;;;;13.70;10.93;;;13.00;56.80;;;;;;5010627;28;20034;-74
2023/04/05 08:36:59;;;;;;;10.25;8.95;;;13.10;57.00;;;;;;5004075;28;20576;-74
2023/04/05 08:39:25;;;;;;;11.93;10.13;;;13.10;57.00;;;;;;5005555;28;20393;-75
2023/04/05 08:42:02;;;;;;;11.68;10.48;;;13.30;57.20;;;;;;5008954;28;20652;-73
2023/04/05 08:44:30;;;;;;;10.18;9.18;;;13.40;57.50;;;;;;5016016;28;20048;-74
2023/04/05 08:46:59;;;;;;;13.23;9.73;;;13.50;57.60;;;;;;5017276;28;20540;-75
2023/04/05 08:49:25;;;;;;;11.55;8.70;;;13.60;57.70;;;;;;5011910;28;20036;-75
2023/04/05 08:51:52;;;;;;;11.98;9.25;;;13.70;57.70;;;;;;4995294;28;20034;-74
2023/04/05 08:54:18;;;;;;;10.20;9.10;;;13.80;57.80;;;;;;5015241;28;20132;-74
2023/04/05 08:56:46;;;;;;;10.57;9.40;;;13.90;57.90;;;;;;5018427;28;20136;-74
2023/04/05 08:59:15;;;;;;;13.63;9.63;;;14.00;57.90;;;;;;5013707;28;20068;-74
2023/04/05 09:01:43;;;;;;;10.85;8.80;;;14.20;58.20;;;;;;5007127;28;20029;-75
2023/04/05 09:04:14;;;;;;;11.43;9.65;;;14.30;58.20;;;;;;5015562;28;20127;-75
2023/04/05 09:06:40;;;;;;;12.32;9.00;;;14.30;58.10;;;;;;5015583;28;20207;-75
2023/04/05 09:09:07;;;;;;;12.70;9.68;;;14.40;58.20;;;;;;5008506;28;20040;-75
2023/04/05 09:11:34;;;;;;;14.23;9.30;;;14.50;58.30;;;;;;5017890;28;20095;-75
2023/04/05 09:14:04;;;;;;;12.55;9.63;;;14.60;58.30;;;;;;5005661;28;20033;-75
2023/04/05 09:16:37;;;;;;;12.07;9.32;;;14.70;58.40;;;;;;5012632;28;20064;-75
2023/04/05 09:19:03;;;;;;;15.18;10.02;;;14.70;58.30;;;;;;5015811;28;20065;-75
2023/04/05 09:21:29;;;;;;;10.65;8.82;;;14.80;58.40;;;;;;5012826;28;20566;-76
2023/04/05 09:23:55;;;;;;;10.88;9.80;;;14.80;58.30;;;;;;5011507;28;20041;-76
2023/04/05 09:26:25;;;;;;;11.70;10.10;;;14.80;58.20;;;;;;5005058;28;20440;-76
2023/04/05 09:28:58;;;;;;;11.82;9.82;;;14.90;58.40;;;;;;5007542;28;20139;-76
2023/04/05 09:31:31;;;;;;;10.65;9.60;;;14.90;58.30;;;;;;5011829;28;20041;-76
2023/04/05 09:33:59;;;;;;;9.85;8.80;;;15.00;58.50;;;;;;5010009;28;20863;-76
2023/04/05 09:36:25;;;;;;;12.73;10.07;;;15.00;58.40;;;;;;5011340;28;20065;-76
2023/04/05 09:38:51;;;;;;;11.85;10.27;;;15.10;58.40;;;;;;5007236;28;20064;-75
2023/04/05 09:41:16;;;;;;;10.30;9.15;;;15.10;58.40;;;;;;5006584;28;20033;-76
2023/04/05 09:43:42;;;;;;;11.80;10.45;;;15.20;58.40;;;;;;5013167;28;20041;-74
2023/04/05 09:46:36;;;;;;;12.40;10.15;;;15.30;58.50;;;;;;5013055;28;20099;-75
2023/04/05 09:49:03;;;;;;;;;;;15.40;58.60;;;;;;5015359;28;20049;-76
2023/04/05 09:51:36;;;;;;;14.70;10.63;;;15.40;58.30;;;;;;5014139;28;19917;-75
2023/04/05 09:54:06;;;;;;;12.40;10.65;;;15.50;58.30;;;;;;5000536;28;20045;-76
2023/04/05 09:56:35;;;;;;;15.85;10.63;;;15.60;58.20;;;;;;4999786;28;20041;-77
2023/04/05 09:59:05;;;;;;;13.95;10.45;;;15.70;58.20;;;;;;5010625;28;20038;-76
2023/04/05 10:01:32;;;;;;;15.35;11.48;;;15.90;58.40;;;;;;5016255;28;20112;-76
2023/04/05 10:03:59;;;;;;;12.88;10.48;;;16.00;58.40;;;;;;5012925;28;20495;-76
2023/04/05 10:06:43;;;;;;;10.63;9.63;;;16.10;58.30;;;;;;5012495;28;20029;-76
2023/04/05 10:09:10;;;;;;;10.73;9.68;;;16.30;58.40;;;;;;5012274;28;20473;-77
2023/04/05 10:11:37;;;;;;;12.90;10.20;;;16.50;58.40;;;;;;5018246;28;20038;-75
2023/04/05 10:14:07;;;;;;;12.13;10.93;;;16.60;58.30;;;;;;5010977;28;20614;-78
2023/04/05 10:16:43;;;;;;;12.07;10.88;;;16.80;58.30;;;;;;5010523;28;20037;-76
2023/04/05 10:19:20;;;;;;;11.95;10.75;;;17.00;58.30;;;;;;4980708;28;20436;-78
2023/04/05 10:21:48;;;;;;;12.45;10.45;;;17.10;58.10;;;;;;4980424;28;20128;-77
2023/04/05 10:24:25;;;;;;;11.35;10.15;;;17.30;58.10;;;;;;4996022;28;20514;-77
2023/04/05 10:27:08;;;;;;;12.10;10.90;;;17.40;57.90;;;;;;5009666;28;20096;-76
2023/04/05 10:30:07;;;;;;;10.75;9.68;;;17.60;57.80;;;;;;4996063;28;20399;-77
2023/04/05 10:33:19;;;;;;;11.75;10.60;;;17.70;57.70;;;;;;4998403;28;20122;-77
2023/04/05 10:35:55;;;;;;;13.38;11.40;;;17.90;57.70;;;;;;4971135;28;20023;-77
2023/04/05 10:38:25;;;;;;;12.40;11.20;;;18.00;57.70;;;;;;4975612;28;20524;-76
2023/04/05 10:41:01;;;;;;;13.68;12.25;;;18.00;57.40;;;;;;5000992;28;20229;-76
2023/04/05 10:43:31;;;;;;;13.68;10.65;;;18.10;57.30;;;;;;5029377;28;20056;-76
2023/04/05 10:45:58;;;;;;;11.45;10.32;;;18.20;57.30;;;;;;5028305;28;20599;-76
2023/04/05 10:48:39;;;;;;;11.32;10.18;;;18.20;57.10;;;;;;5017044;28;20057;-75
2023/04/05 10:51:05;;;;;;;12.65;11.35;;;18.30;57.10;;;;;;5002382;28;20049;-75
2023/04/05 10:53:32;;;;;;;11.10;9.68;;;18.40;57.20;;;;;;5025875;28;20056;-76
2023/04/05 10:56:00;;;;;;;16.60;11.48;;;18.50;57.10;;;;;;5027100;28;20128;-75
2023/04/05 10:58:28;;;;;;;14.80;11.25;;;18.60;57.20;;;;;;5021885;28;20030;-76
2023/04/05 11:00:55;;;;;;;11.57;10.35;;;18.80;57.50;;;;;;5030422;28;20665;-77
2023/04/05 11:03:40;;;;;;;15.00;11.45;;;18.90;57.60;;;;;;5020433;28;20050;-76
2023/04/05 11:06:19;;;;;;;14.40;11.18;;;19.00;57.50;;;;;;5016262;28;20504;-76
2023/04/05 11:08:47;;;;;;;13.18;11.57;;;19.10;57.50;;;;;;5001399;28;20040;-76
2023/04/05 11:11:17;;;;;;;12.75;10.40;;;19.10;57.30;;;;;;5018194;28;20117;-79
2023/04/05 11:13:48;;;;;;;11.13;9.20;;;19.20;57.40;;;;;;5019058;28;20044;-77
2023/04/05 11:16:14;;;;;;;9.88;8.88;;;19.20;57.20;;;;;;5018011;28;20036;-77
2023/04/05 11:18:47;;;;;;;10.32;9.25;;;19.30;57.20;;;;;;5019362;28;20037;-77
2023/04/05 11:21:23;;;;;;;;;;;19.40;57.20;;;;;;5015993;28;20424;-77
2023/04/05 11:24:08;;;;;;;9.73;8.60;;;19.50;57.20;;;;;;5019078;28;19996;-77
2023/04/05 11:26:43;;;;;;;8.05;7.25;;;19.60;57.10;;;;;;5018785;28;20064;-77
2023/04/05 11:29:14;;;;;;;9.48;8.45;;;19.70;57.10;;;;;;5012752;28;20033;-77
2023/04/05 11:32:12;;;;;;;9.02;8.07;;;19.70;57.00;;;;;;5014845;28;20545;-77
2023/04/05 11:34:42;;;;;;;10.02;9.02;;;19.70;56.80;;;;;;4966823;28;20041;-78
2023/04/05 11:37:08;;;;;;;10.38;9.38;;;19.70;56.80;;;;;;5011558;28;20128;-77
2023/04/05 11:39:36;;;;;;;9.20;8.40;;;19.70;56.70;;;;;;5016702;28;20025;-77
2023/04/05 11:42:04;;;;;;;9.30;8.32;;;19.70;56.70;;;;;;4981170;28;20034;-76
2023/04/05 11:44:46;;;;;;;8.98;8.05;;;19.60;56.50;;;;;;5018245;28;20512;-76
2023/04/05 11:47:15;;;;;;;9.40;8.52;;;19.60;56.30;;;;;;5002851;28;20053;-77
2023/04/05 11:49:41;;;;;;;10.10;9.05;;;19.60;56.40;;;;;;5009167;28;20482;-76
2023/04/05 11:52:15;;;;;;;11.63;8.93;;;19.50;56.20;;;;;;5011829;28;20037;-77
2023/04/05 11:54:45;;;;;;;9.25;8.30;;;19.60;56.30;;;;;;4996670;28;20275;-77
2023/04/05 11:57:19;;;;;;;9.82;8.23;;;19.50;56.10;;;;;;5031060;28;20037;-77
2023/04/05 11:59:46;;;;;;;9.85;8.18;;;19.50;55.90;;;;;;5029679;28;20053;-76
2023/04/05 12:02:12;;;;;;;9.55;8.32;;;19.50;55.90;;;;;;5017875;28;20040;-78
2023/04/05 12:04:39;;;;;;;8.00;7.30;;;19.50;55.90;;;;;;5014144;28;20466;-78
2023/04/05 12:07:18;;;;;;;9.40;8.50;;;19.50;55.80;;;;;;5012645;28;20033;-77
2023/04/05 12:09:58;;;;;;;8.98;7.72;;;19.50;55.70;;;;;;5014204;28;20127;-77
2023/04/05 12:12:24;;;;;;;8.90;7.93;;;19.40;55.50;;;;;;5011350;28;20525;-77
2023/04/05 12:14:50;;;;;;;9.68;8.13;;;19.40;55.60;;;;;;5013777;28;20025;-76
2023/04/05 12:17:16;;;;;;;10.90;8.70;;;19.40;55.60;;;;;;5016564;28;20083;-76
2023/04/05 12:19:42;;;;;;;10.13;9.13;;;19.40;55.60;;;;;;5011383;28;20103;-75
2023/04/05 12:22:08;;;;;;;10.45;9.32;;;19.30;55.50;;;;;;5015390;28;20098;-75
2023/04/05 12:24:34;;;;;;;11.43;10.35;;;19.20;55.30;;;;;;5016394;28;20441;-76
2023/04/05 12:27:00;;;;;;;11.85;10.68;;;19.20;55.40;;;;;;5016705;28;20061;-76
2023/04/05 12:29:26;;;;;;;12.90;10.98;;;19.20;55.30;;;;;;5012740;28;20108;-82
2023/04/05 12:31:54;;;;;;;9.75;8.73;;;19.20;55.30;;;;;;5013797;28;20433;-77
2023/04/05 12:34:26;;;;;;;9.77;8.77;;;19.30;55.30;;;;;;5011379;28;20056;-76
2023/04/05 12:36:53;;;;;;;9.82;7.97;;;19.40;55.40;;;;;;5010847;28;20033;-77
2023/04/05 12:39:20;;;;;;;9.40;8.60;;;19.50;55.40;;;;;;5010575;28;20030;-76
2023/04/05 12:41:57;;;;;;;10.50;9.40;;;19.60;55.30;;;;;;5013917;28;20033;-76
2023/04/05 12:44:30;;;;;;;10.38;9.40;;;19.70;55.20;;;;;;5009644;28;20159;-76
2023/04/05 12:47:01;;;;;;;9.70;8.65;;;19.70;55.10;;;;;;5010085;28;20053;-77
2023/04/05 12:49:27;;;;;;;10.00;9.00;;;19.80;55.20;;;;;;5012584;28;20087;-76
2023/04/05 12:51:53;;;;;;;10.63;9.52;;;19.80;55.00;;;;;;5016479;28;20029;-78
2023/04/05 12:54:21;;;;;;;9.32;8.48;;;19.80;54.90;;;;;;5010765;28;20044;-77
2023/04/05 12:56:53;;;;;;;9.90;8.98;;;19.90;55.00;;;;;;5010354;28;20033;-77